sensor_id;sensor_type;location;lat;lon;timestamp;P1;durP1;ratioP1;P2;durP2;ratioP2
65035;SDS011;51603;49.300;8.880;2022-11-15T00:01:17;14.50;;;13.00;;
65035;SDS011;51603;49.300;8.880;2022-11-15T00:03:43;17.70;;;15.83;;
65035;SDS011;51603;49.300;8.880;2022-11-15T00:06:09;21.80;;;19.70;;
65035;SDS011;51603;49.300;8.880;2022-11-15T00:08:34;20.43;;;18.27;;
65035;SDS011;51603;49.300;8.880;2022-11-15T00:11:01;24.77;;;22.37;;
65035;SDS011;51603;49.300;8.880;2022-11-15T00:13:28;50.30;;;46.20;;
65035;SDS011;51603;49.300;8.880;2022-11-15T00:15:56;53.57;;;48.83;;
65035;SDS011;51603;49.300;8.880;2022-11-15T00:18:25;65.20;;;59.50;;
65035;SDS011;51603;49.300;8.880;2022-11-15T00:20:51;51.50;;;47.20;;
65035;SDS011;51603;49.300;8.880;2022-11-15T00:23:17;58.17;;;52.87;;
65035;SDS011;51603;49.300;8.880;2022-11-15T00:25:42;49.53;;;45.33;;
65035;SDS011;51603;49.300;8.880;2022-11-15T00:28:08;51.60;;;47.00;;
65035;SDS011;51603;49.300;8.880;2022-11-15T00:30:33;49.67;;;34.60;;
65035;SDS011;51603;49.300;8.880;2022-11-15T00:33:06;30.77;;;26.83;;
65035;SDS011;51603;49.300;8.880;2022-11-15T00:35:32;19.77;;;17.87;;
65035;SDS011;51603;49.300;8.880;2022-11-15T00:37:59;23.97;;;21.57;;
65035;SDS011;51603;49.300;8.880;2022-11-15T00:40:25;24.50;;;22.17;;
65035;SDS011;51603;49.300;8.880;2022-11-15T00:42:51;22.43;;;20.10;;
65035;SDS011;51603;49.300;8.880;2022-11-15T00:45:16;20.33;;;18.37;;
65035;SDS011;51603;49.300;8.880;2022-11-15T00:47:45;20.73;;;18.47;;
65035;SDS011;51603;49.300;8.880;2022-11-15T00:50:11;19.20;;;16.70;;
65035;SDS011;51603;49.300;8.880;2022-11-15T00:52:37;21.27;;;18.37;;
65035;SDS011;51603;49.300;8.880;2022-11-15T00:55:03;16.90;;;15.23;;
65035;SDS011;51603;49.300;8.880;2022-11-15T00:57:29;17.53;;;15.63;;
65035;SDS011;51603;49.300;8.880;2022-11-15T00:59:54;14.50;;;13.10;;
65035;SDS011;51603;49.300;8.880;2022-11-15T01:02:20;12.37;;;11.07;;
65035;SDS011;51603;49.300;8.880;2022-11-15T01:04:45;11.93;;;9.90;;
65035;SDS011;51603;49.300;8.880;2022-11-15T01:07:11;11.40;;;9.63;;
65035;SDS011;51603;49.300;8.880;2022-11-15T01:09:37;12.67;;;10.93;;
65035;SDS011;51603;49.300;8.880;2022-11-15T01:12:02;11.77;;;10.10;;
65035;SDS011;51603;49.300;8.880;2022-11-15T01:14:28;11.80;;;10.70;;
65035;SDS011;51603;49.300;8.880;2022-11-15T01:16:54;15.97;;;12.30;;
65035;SDS011;51603;49.300;8.880;2022-11-15T01:19:19;12.10;;;10.90;;
65035;SDS011;51603;49.300;8.880;2022-11-15T01:21:45;13.97;;;12.60;;
65035;SDS011;51603;49.300;8.880;2022-11-15T01:24:13;14.60;;;13.10;;
65035;SDS011;51603;49.300;8.880;2022-11-15T01:26:38;12.13;;;10.67;;
65035;SDS011;51603;49.300;8.880;2022-11-15T01:29:04;13.10;;;11.70;;
65035;SDS011;51603;49.300;8.880;2022-11-15T01:31:30;14.63;;;12.13;;
65035;SDS011;51603;49.300;8.880;2022-11-15T01:33:55;11.20;;;10.07;;
65035;SDS011;51603;49.300;8.880;2022-11-15T01:36:21;11.10;;;9.90;;
65035;SDS011;51603;49.300;8.880;2022-11-15T01:38:52;12.43;;;11.23;;
65035;SDS011;51603;49.300;8.880;2022-11-15T01:41:20;13.73;;;10.13;;
65035;SDS011;51603;49.300;8.880;2022-11-15T01:43:51;13.10;;;11.83;;
65035;SDS011;51603;49.300;8.880;2022-11-15T01:48:50;11.13;;;9.80;;
65035;SDS011;51603;49.300;8.880;2022-11-15T01:51:19;13.07;;;11.33;;
65035;SDS011;51603;49.300;8.880;2022-11-15T01:53:47;13.33;;;11.83;;
65035;SDS011;51603;49.300;8.880;2022-11-15T01:56:17;12.23;;;10.93;;
65035;SDS011;51603;49.300;8.880;2022-11-15T01:58:47;12.30;;;11.10;;
65035;SDS011;51603;49.300;8.880;2022-11-15T02:01:25;10.37;;;9.37;;
65035;SDS011;51603;49.300;8.880;2022-11-15T02:03:54;10.97;;;9.50;;
65035;SDS011;51603;49.300;8.880;2022-11-15T02:06:23;13.33;;;11.93;;
65035;SDS011;51603;49.300;8.880;2022-11-15T02:08:49;14.10;;;12.67;;
65035;SDS011;51603;49.300;8.880;2022-11-15T02:11:15;12.00;;;10.80;;
65035;SDS011;51603;49.300;8.880;2022-11-15T02:13:41;14.00;;;12.23;;
65035;SDS011;51603;49.300;8.880;2022-11-15T02:16:25;11.50;;;10.37;;
65035;SDS011;51603;49.300;8.880;2022-11-15T02:32:55;11.60;;;9.43;;
65035;SDS011;51603;49.300;8.880;2022-11-15T02:37:55;11.77;;;10.67;;
65035;SDS011;51603;49.300;8.880;2022-11-15T02:40:33;12.03;;;10.87;;
65035;SDS011;51603;49.300;8.880;2022-11-15T02:43:11;13.47;;;12.07;;
65035;SDS011;51603;49.300;8.880;2022-11-15T02:49:09;11.93;;;10.60;;
65035;SDS011;51603;49.300;8.880;2022-11-15T02:51:36;11.37;;;10.27;;
65035;SDS011;51603;49.300;8.880;2022-11-15T02:54:02;11.87;;;9.37;;
65035;SDS011;51603;49.300;8.880;2022-11-15T02:56:27;10.97;;;9.13;;
65035;SDS011;51603;49.300;8.880;2022-11-15T02:59:07;10.73;;;8.80;;
65035;SDS011;51603;49.300;8.880;2022-11-15T03:02:06;9.43;;;8.23;;
65035;SDS011;51603;49.300;8.880;2022-11-15T03:07:16;11.57;;;10.47;;
65035;SDS011;51603;49.300;8.880;2022-11-15T03:12:36;13.30;;;10.67;;
65035;SDS011;51603;49.300;8.880;2022-11-15T03:15:21;13.03;;;11.70;;
65035;SDS011;51603;49.300;8.880;2022-11-15T03:18:07;12.80;;;11.50;;
65035;SDS011;51603;49.300;8.880;2022-11-15T03:20:40;11.23;;;9.97;;
65035;SDS011;51603;49.300;8.880;2022-11-15T03:23:08;15.47;;;10.70;;
65035;SDS011;51603;49.300;8.880;2022-11-15T03:25:37;10.30;;;9.20;;
65035;SDS011;51603;49.300;8.880;2022-11-15T03:28:06;9.50;;;8.50;;
65035;SDS011;51603;49.300;8.880;2022-11-15T03:30:35;11.63;;;10.07;;
65035;SDS011;51603;49.300;8.880;2022-11-15T03:33:02;10.90;;;9.80;;
65035;SDS011;51603;49.300;8.880;2022-11-15T03:35:33;11.40;;;9.80;;
65035;SDS011;51603;49.300;8.880;2022-11-15T03:38:20;13.23;;;9.93;;
65035;SDS011;51603;49.300;8.880;2022-11-15T03:43:28;9.97;;;8.93;;
65035;SDS011;51603;49.300;8.880;2022-11-15T03:46:13;10.80;;;9.80;;
65035;SDS011;51603;49.300;8.880;2022-11-15T03:49:09;11.30;;;9.90;;
65035;SDS011;51603;49.300;8.880;2022-11-15T03:51:40;10.30;;;9.30;;
65035;SDS011;51603;49.300;8.880;2022-11-15T03:54:06;15.07;;;10.57;;
65035;SDS011;51603;49.300;8.880;2022-11-15T03:56:31;10.40;;;9.27;;
65035;SDS011;51603;49.300;8.880;2022-11-15T03:58:57;12.57;;;10.93;;
65035;SDS011;51603;49.300;8.880;2022-11-15T04:01:23;11.97;;;10.37;;
65035;SDS011;51603;49.300;8.880;2022-11-15T04:03:48;12.23;;;9.50;;
65035;SDS011;51603;49.300;8.880;2022-11-15T04:06:14;10.77;;;9.50;;
65035;SDS011;51603;49.300;8.880;2022-11-15T04:08:40;10.80;;;9.70;;
65035;SDS011;51603;49.300;8.880;2022-11-15T04:11:05;11.93;;;10.63;;
65035;SDS011;51603;49.300;8.880;2022-11-15T04:13:31;12.27;;;11.00;;
65035;SDS011;51603;49.300;8.880;2022-11-15T04:15:56;11.50;;;9.10;;
65035;SDS011;51603;49.300;8.880;2022-11-15T04:18:22;10.37;;;9.07;;
65035;SDS011;51603;49.300;8.880;2022-11-15T04:20:49;10.57;;;9.67;;
65035;SDS011;51603;49.300;8.880;2022-11-15T04:23:33;13.13;;;9.67;;
65035;SDS011;51603;49.300;8.880;2022-11-15T04:26:18;10.30;;;9.40;;
65035;SDS011;51603;49.300;8.880;2022-11-15T04:28:46;9.37;;;8.53;;
65035;SDS011;51603;49.300;8.880;2022-11-15T04:31:30;10.07;;;9.10;;
65035;SDS011;51603;49.300;8.880;2022-11-15T04:33:55;11.40;;;10.03;;
65035;SDS011;51603;49.300;8.880;2022-11-15T04:36:21;10.30;;;9.30;;
65035;SDS011;51603;49.300;8.880;2022-11-15T04:39:06;13.90;;;10.30;;
65035;SDS011;51603;49.300;8.880;2022-11-15T04:41:31;11.43;;;9.53;;
65035;SDS011;51603;49.300;8.880;2022-11-15T04:43:57;12.50;;;11.20;;
65035;SDS011;51603;49.300;8.880;2022-11-15T04:46:23;9.90;;;8.90;;
65035;SDS011;51603;49.300;8.880;2022-11-15T04:48:49;9.40;;;8.50;;
65035;SDS011;51603;49.300;8.880;2022-11-15T04:51:15;11.33;;;9.90;;
65035;SDS011;51603;49.300;8.880;2022-11-15T04:53:41;10.07;;;9.10;;
65035;SDS011;51603;49.300;8.880;2022-11-15T04:56:06;14.23;;;10.27;;
65035;SDS011;51603;49.300;8.880;2022-11-15T04:58:32;10.30;;;9.40;;
65035;SDS011;51603;49.300;8.880;2022-11-15T05:00:58;10.27;;;8.70;;
65035;SDS011;51603;49.300;8.880;2022-11-15T05:03:44;9.80;;;8.80;;
65035;SDS011;51603;49.300;8.880;2022-11-15T05:06:28;10.50;;;8.70;;
65035;SDS011;51603;49.300;8.880;2022-11-15T05:08:54;10.57;;;9.10;;
65035;SDS011;51603;49.300;8.880;2022-11-15T05:11:21;9.50;;;8.50;;
65035;SDS011;51603;49.300;8.880;2022-11-15T05:13:46;10.17;;;8.70;;
65035;SDS011;51603;49.300;8.880;2022-11-15T05:16:12;8.60;;;7.80;;
65035;SDS011;51603;49.300;8.880;2022-11-15T05:18:37;9.40;;;8.40;;
65035;SDS011;51603;49.300;8.880;2022-11-15T05:21:06;11.47;;;9.00;;
65035;SDS011;51603;49.300;8.880;2022-11-15T05:23:36;29.27;;;26.73;;
65035;SDS011;51603;49.300;8.880;2022-11-15T05:26:03;41.57;;;37.97;;
65035;SDS011;51603;49.300;8.880;2022-11-15T05:28:30;33.60;;;30.60;;
65035;SDS011;51603;49.300;8.880;2022-11-15T05:31:01;30.20;;;27.60;;
65035;SDS011;51603;49.300;8.880;2022-11-15T05:33:27;27.27;;;25.00;;
65035;SDS011;51603;49.300;8.880;2022-11-15T05:36:00;16.13;;;14.67;;
65035;SDS011;51603;49.300;8.880;2022-11-15T05:38:40;15.73;;;14.07;;
65035;SDS011;51603;49.300;8.880;2022-11-15T05:41:06;22.00;;;19.70;;
65035;SDS011;51603;49.300;8.880;2022-11-15T05:43:32;19.93;;;17.90;;
65035;SDS011;51603;49.300;8.880;2022-11-15T05:46:01;16.27;;;14.87;;
65035;SDS011;51603;49.300;8.880;2022-11-15T05:48:28;18.00;;;16.50;;
65035;SDS011;51603;49.300;8.880;2022-11-15T05:50:53;16.77;;;15.17;;
65035;SDS011;51603;49.300;8.880;2022-11-15T05:53:20;17.70;;;16.20;;
65035;SDS011;51603;49.300;8.880;2022-11-15T05:55:49;18.60;;;16.90;;
65035;SDS011;51603;49.300;8.880;2022-11-15T05:58:15;43.37;;;39.67;;
65035;SDS011;51603;49.300;8.880;2022-11-15T06:00:42;55.50;;;50.63;;
65035;SDS011;51603;49.300;8.880;2022-11-15T06:03:08;70.10;;;64.10;;
65035;SDS011;51603;49.300;8.880;2022-11-15T06:05:34;26.17;;;23.40;;
65035;SDS011;51603;49.300;8.880;2022-11-15T06:07:59;32.97;;;29.60;;
65035;SDS011;51603;49.300;8.880;2022-11-15T06:10:25;19.47;;;17.40;;
65035;SDS011;51603;49.300;8.880;2022-11-15T06:13:00;16.30;;;14.03;;
65035;SDS011;51603;49.300;8.880;2022-11-15T06:15:28;19.37;;;17.63;;
65035;SDS011;51603;49.300;8.880;2022-11-15T06:17:56;16.70;;;15.20;;
65035;SDS011;51603;49.300;8.880;2022-11-15T06:20:23;15.20;;;13.60;;
65035;SDS011;51603;49.300;8.880;2022-11-15T06:23:02;11.40;;;9.80;;
65035;SDS011;51603;49.300;8.880;2022-11-15T06:25:29;12.33;;;11.20;;
65035;SDS011;51603;49.300;8.880;2022-11-15T06:27:56;16.73;;;15.13;;
65035;SDS011;51603;49.300;8.880;2022-11-15T06:30:23;16.43;;;14.83;;
65035;SDS011;51603;49.300;8.880;2022-11-15T06:32:49;23.90;;;21.40;;
65035;SDS011;51603;49.300;8.880;2022-11-15T06:35:15;19.80;;;17.80;;
65035;SDS011;51603;49.300;8.880;2022-11-15T06:37:41;19.50;;;17.77;;
65035;SDS011;51603;49.300;8.880;2022-11-15T06:40:07;18.40;;;16.60;;
65035;SDS011;51603;49.300;8.880;2022-11-15T06:42:34;17.00;;;15.40;;
65035;SDS011;51603;49.300;8.880;2022-11-15T06:45:00;29.60;;;27.00;;
65035;SDS011;51603;49.300;8.880;2022-11-15T06:47:26;25.87;;;23.30;;
65035;SDS011;51603;49.300;8.880;2022-11-15T06:49:52;21.83;;;19.97;;
65035;SDS011;51603;49.300;8.880;2022-11-15T06:52:17;21.27;;;19.17;;
65035;SDS011;51603;49.300;8.880;2022-11-15T06:54:44;18.97;;;17.33;;
65035;SDS011;51603;49.300;8.880;2022-11-15T06:57:10;14.13;;;12.83;;
65035;SDS011;51603;49.300;8.880;2022-11-15T06:59:35;15.50;;;13.83;;
65035;SDS011;51603;49.300;8.880;2022-11-15T07:02:01;11.13;;;10.03;;
65035;SDS011;51603;49.300;8.880;2022-11-15T07:04:27;12.27;;;10.60;;
65035;SDS011;51603;49.300;8.880;2022-11-15T07:06:52;17.20;;;15.47;;
65035;SDS011;51603;49.300;8.880;2022-11-15T07:09:18;16.03;;;14.47;;
65035;SDS011;51603;49.300;8.880;2022-11-15T07:11:43;15.57;;;14.10;;
65035;SDS011;51603;49.300;8.880;2022-11-15T07:14:09;16.07;;;14.27;;
65035;SDS011;51603;49.300;8.880;2022-11-15T07:16:35;16.43;;;14.70;;
65035;SDS011;51603;49.300;8.880;2022-11-15T07:19:01;17.33;;;15.70;;
65035;SDS011;51603;49.300;8.880;2022-11-15T07:21:27;17.27;;;13.77;;
65035;SDS011;51603;49.300;8.880;2022-11-15T07:23:52;15.23;;;13.83;;
65035;SDS011;51603;49.300;8.880;2022-11-15T07:26:18;13.87;;;12.57;;
65035;SDS011;51603;49.300;8.880;2022-11-15T07:28:43;13.80;;;12.60;;
65035;SDS011;51603;49.300;8.880;2022-11-15T07:31:09;12.67;;;11.37;;
65035;SDS011;51603;49.300;8.880;2022-11-15T07:33:35;12.30;;;11.20;;
65035;SDS011;51603;49.300;8.880;2022-11-15T07:36:02;12.20;;;10.90;;
65035;SDS011;51603;49.300;8.880;2022-11-15T07:38:28;11.40;;;10.20;;
65035;SDS011;51603;49.300;8.880;2022-11-15T07:41:02;12.63;;;10.10;;
65035;SDS011;51603;49.300;8.880;2022-11-15T07:43:29;11.10;;;10.07;;
65035;SDS011;51603;49.300;8.880;2022-11-15T07:45:56;9.23;;;8.33;;
65035;SDS011;51603;49.300;8.880;2022-11-15T07:48:22;9.83;;;8.83;;
65035;SDS011;51603;49.300;8.880;2022-11-15T07:50:47;12.37;;;11.20;;
65035;SDS011;51603;49.300;8.880;2022-11-15T07:53:13;11.50;;;9.60;;
65035;SDS011;51603;49.300;8.880;2022-11-15T07:55:39;12.23;;;10.70;;
65035;SDS011;51603;49.300;8.880;2022-11-15T07:58:10;11.33;;;10.10;;
65035;SDS011;51603;49.300;8.880;2022-11-15T08:00:37;12.90;;;10.10;;
65035;SDS011;51603;49.300;8.880;2022-11-15T08:03:07;10.67;;;9.67;;
65035;SDS011;51603;49.300;8.880;2022-11-15T08:05:35;11.10;;;9.97;;
65035;SDS011;51603;49.300;8.880;2022-11-15T08:08:02;9.70;;;8.77;;
65035;SDS011;51603;49.300;8.880;2022-11-15T08:10:28;10.23;;;9.23;;
65035;SDS011;51603;49.300;8.880;2022-11-15T08:13:00;10.67;;;9.60;;
65035;SDS011;51603;49.300;8.880;2022-11-15T08:15:28;11.40;;;10.30;;
65035;SDS011;51603;49.300;8.880;2022-11-15T08:17:55;10.40;;;9.30;;
65035;SDS011;51603;49.300;8.880;2022-11-15T08:20:21;9.97;;;8.90;;
65035;SDS011;51603;49.300;8.880;2022-11-15T08:22:47;9.47;;;8.57;;
65035;SDS011;51603;49.300;8.880;2022-11-15T08:25:13;9.90;;;8.90;;
65035;SDS011;51603;49.300;8.880;2022-11-15T08:27:39;10.57;;;9.03;;
65035;SDS011;51603;49.300;8.880;2022-11-15T08:30:04;10.00;;;9.00;;
65035;SDS011;51603;49.300;8.880;2022-11-15T08:32:31;8.10;;;7.30;;
65035;SDS011;51603;49.300;8.880;2022-11-15T08:34:57;10.53;;;9.43;;
65035;SDS011;51603;49.300;8.880;2022-11-15T08:37:22;10.13;;;9.13;;
65035;SDS011;51603;49.300;8.880;2022-11-15T08:39:48;13.83;;;9.07;;
65035;SDS011;51603;49.300;8.880;2022-11-15T08:42:14;11.27;;;8.67;;
65035;SDS011;51603;49.300;8.880;2022-11-15T08:44:41;11.83;;;8.80;;
65035;SDS011;51603;49.300;8.880;2022-11-15T08:47:06;8.30;;;7.53;;
65035;SDS011;51603;49.300;8.880;2022-11-15T08:49:33;10.37;;;8.67;;
65035;SDS011;51603;49.300;8.880;2022-11-15T08:51:58;11.10;;;8.37;;
65035;SDS011;51603;49.300;8.880;2022-11-15T08:54:24;10.50;;;8.63;;
65035;SDS011;51603;49.300;8.880;2022-11-15T08:56:49;9.70;;;8.23;;
65035;SDS011;51603;49.300;8.880;2022-11-15T08:59:15;9.10;;;7.63;;
65035;SDS011;51603;49.300;8.880;2022-11-15T09:01:40;8.27;;;7.30;;
65035;SDS011;51603;49.300;8.880;2022-11-15T09:04:06;9.57;;;7.77;;
65035;SDS011;51603;49.300;8.880;2022-11-15T09:06:31;8.67;;;7.43;;
65035;SDS011;51603;49.300;8.880;2022-11-15T09:08:57;8.03;;;7.23;;
65035;SDS011;51603;49.300;8.880;2022-11-15T09:11:22;8.73;;;7.93;;
65035;SDS011;51603;49.300;8.880;2022-11-15T09:13:48;8.60;;;7.80;;
65035;SDS011;51603;49.300;8.880;2022-11-15T09:16:14;12.30;;;8.30;;
65035;SDS011;51603;49.300;8.880;2022-11-15T09:18:40;9.03;;;8.10;;
65035;SDS011;51603;49.300;8.880;2022-11-15T09:21:06;8.67;;;7.77;;
65035;SDS011;51603;49.300;8.880;2022-11-15T09:23:32;10.97;;;8.37;;
65035;SDS011;51603;49.300;8.880;2022-11-15T09:25:58;8.97;;;7.80;;
65035;SDS011;51603;49.300;8.880;2022-11-15T09:28:26;10.13;;;7.80;;
65035;SDS011;51603;49.300;8.880;2022-11-15T09:30:55;9.83;;;7.30;;
65035;SDS011;51603;49.300;8.880;2022-11-15T09:33:21;9.50;;;8.00;;
65035;SDS011;51603;49.300;8.880;2022-11-15T09:35:47;8.70;;;7.90;;
65035;SDS011;51603;49.300;8.880;2022-11-15T09:38:12;11.03;;;8.57;;
65035;SDS011;51603;49.300;8.880;2022-11-15T09:40:38;9.33;;;7.17;;
65035;SDS011;51603;49.300;8.880;2022-11-15T09:43:06;11.83;;;8.10;;
65035;SDS011;51603;49.300;8.880;2022-11-15T09:45:55;7.60;;;6.80;;
65035;SDS011;51603;49.300;8.880;2022-11-15T09:49:23;8.03;;;7.10;;
65035;SDS011;51603;49.300;8.880;2022-11-15T09:51:27;12.07;;;7.47;;
65035;SDS011;51603;49.300;8.880;2022-11-15T09:54:02;8.77;;;7.70;;
65035;SDS011;51603;49.300;8.880;2022-11-15T09:56:31;8.83;;;7.90;;
65035;SDS011;51603;49.300;8.880;2022-11-15T09:59:04;7.43;;;6.60;;
65035;SDS011;51603;49.300;8.880;2022-11-15T10:04:33;10.90;;;7.27;;
65035;SDS011;51603;49.300;8.880;2022-11-15T10:07:02;8.87;;;7.97;;
65035;SDS011;51603;49.300;8.880;2022-11-15T10:09:41;10.53;;;8.23;;
65035;SDS011;51603;49.300;8.880;2022-11-15T10:12:09;9.37;;;7.20;;
65035;SDS011;51603;49.300;8.880;2022-11-15T10:14:37;13.27;;;7.80;;
65035;SDS011;51603;49.300;8.880;2022-11-15T10:17:06;8.77;;;6.70;;
65035;SDS011;51603;49.300;8.880;2022-11-15T10:22:43;8.20;;;6.70;;
65035;SDS011;51603;49.300;8.880;2022-11-15T10:25:15;7.43;;;6.50;;
65035;SDS011;51603;49.300;8.880;2022-11-15T10:30:23;6.80;;;5.70;;
65035;SDS011;51603;49.300;8.880;2022-11-15T10:33:47;7.60;;;5.47;;
65035;SDS011;51603;49.300;8.880;2022-11-15T10:44:01;6.90;;;5.50;;
65035;SDS011;51603;49.300;8.880;2022-11-15T10:46:45;5.80;;;5.30;;
65035;SDS011;51603;49.300;8.880;2022-11-15T10:49:32;5.93;;;5.03;;
65035;SDS011;51603;49.300;8.880;2022-11-15T10:57:25;6.60;;;5.60;;
65035;SDS011;51603;49.300;8.880;2022-11-15T10:59:55;7.93;;;5.73;;
65035;SDS011;51603;49.300;8.880;2022-11-15T11:02:27;5.37;;;4.50;;
65035;SDS011;51603;49.300;8.880;2022-11-15T11:04:55;6.00;;;5.40;;
65035;SDS011;51603;49.300;8.880;2022-11-15T11:07:23;5.63;;;5.03;;
65035;SDS011;51603;49.300;8.880;2022-11-15T11:09:57;7.50;;;5.43;;
65035;SDS011;51603;49.300;8.880;2022-11-15T11:12:28;5.90;;;5.30;;
65035;SDS011;51603;49.300;8.880;2022-11-15T11:14:57;7.57;;;4.90;;
65035;SDS011;51603;49.300;8.880;2022-11-15T11:26:01;11.13;;;5.30;;
65035;SDS011;51603;49.300;8.880;2022-11-15T11:29:01;6.37;;;4.90;;
65035;SDS011;51603;49.300;8.880;2022-11-15T11:31:40;9.90;;;5.10;;
65035;SDS011;51603;49.300;8.880;2022-11-15T11:34:29;7.00;;;5.23;;
65035;SDS011;51603;49.300;8.880;2022-11-15T11:37:01;5.60;;;4.70;;
65035;SDS011;51603;49.300;8.880;2022-11-15T11:42:33;6.87;;;5.90;;
65035;SDS011;51603;49.300;8.880;2022-11-15T11:48:22;20.83;;;5.50;;
65035;SDS011;51603;49.300;8.880;2022-11-15T11:51:10;7.30;;;5.30;;
65035;SDS011;51603;49.300;8.880;2022-11-15T11:53:47;6.20;;;5.07;;
65035;SDS011;51603;49.300;8.880;2022-11-15T11:56:29;6.10;;;5.60;;
65035;SDS011;51603;49.300;8.880;2022-11-15T11:59:01;8.80;;;5.70;;
65035;SDS011;51603;49.300;8.880;2022-11-15T12:01:34;8.47;;;6.47;;
65035;SDS011;51603;49.300;8.880;2022-11-15T12:09:43;9.67;;;5.70;;
65035;SDS011;51603;49.300;8.880;2022-11-15T12:12:15;8.80;;;6.13;;
65035;SDS011;51603;49.300;8.880;2022-11-15T12:15:04;8.03;;;5.50;;
65035;SDS011;51603;49.300;8.880;2022-11-15T12:17:40;6.67;;;5.30;;
65035;SDS011;51603;49.300;8.880;2022-11-15T12:20:20;6.23;;;5.63;;
65035;SDS011;51603;49.300;8.880;2022-11-15T12:23:50;6.20;;;4.93;;
65035;SDS011;51603;49.300;8.880;2022-11-15T12:25:53;8.57;;;5.27;;
65035;SDS011;51603;49.300;8.880;2022-11-15T12:31:15;6.43;;;4.73;;
65035;SDS011;51603;49.300;8.880;2022-11-15T12:34:00;8.80;;;4.80;;
65035;SDS011;51603;49.300;8.880;2022-11-15T12:41:32;10.93;;;5.40;;
65035;SDS011;51603;49.300;8.880;2022-11-15T12:43:59;5.10;;;4.60;;
65035;SDS011;51603;49.300;8.880;2022-11-15T12:59:48;6.10;;;5.13;;
65035;SDS011;51603;49.300;8.880;2022-11-15T13:02:22;5.70;;;5.20;;
65035;SDS011;51603;49.300;8.880;2022-11-15T13:20:21;7.13;;;5.73;;
65035;SDS011;51603;49.300;8.880;2022-11-15T13:33:22;7.23;;;5.70;;
65035;SDS011;51603;49.300;8.880;2022-11-15T13:35:51;8.00;;;6.20;;
65035;SDS011;51603;49.300;8.880;2022-11-15T13:40:56;6.40;;;4.77;;
65035;SDS011;51603;49.300;8.880;2022-11-15T13:48:35;7.87;;;5.77;;
65035;SDS011;51603;49.300;8.880;2022-11-15T13:51:05;6.27;;;5.60;;
65035;SDS011;51603;49.300;8.880;2022-11-15T13:53:34;9.13;;;6.20;;
65035;SDS011;51603;49.300;8.880;2022-11-15T13:56:03;5.27;;;4.77;;
65035;SDS011;51603;49.300;8.880;2022-11-15T13:58:29;5.97;;;4.90;;
65035;SDS011;51603;49.300;8.880;2022-11-15T14:01:02;6.07;;;4.07;;
65035;SDS011;51603;49.300;8.880;2022-11-15T14:03:34;5.50;;;4.60;;
65035;SDS011;51603;49.300;8.880;2022-11-15T14:06:08;8.70;;;4.77;;
65035;SDS011;51603;49.300;8.880;2022-11-15T14:08:40;6.33;;;4.30;;
65035;SDS011;51603;49.300;8.880;2022-11-15T14:13:41;6.47;;;4.90;;
65035;SDS011;51603;49.300;8.880;2022-11-15T14:16:14;5.33;;;4.40;;
65035;SDS011;51603;49.300;8.880;2022-11-15T14:18:48;5.93;;;4.10;;
65035;SDS011;51603;49.300;8.880;2022-11-15T14:21:18;5.40;;;4.10;;
65035;SDS011;51603;49.300;8.880;2022-11-15T14:23:44;7.03;;;4.73;;
65035;SDS011;51603;49.300;8.880;2022-11-15T14:26:27;5.43;;;4.10;;
65035;SDS011;51603;49.300;8.880;2022-11-15T14:29:21;5.10;;;4.60;;
65035;SDS011;51603;49.300;8.880;2022-11-15T14:31:46;5.67;;;4.83;;
65035;SDS011;51603;49.300;8.880;2022-11-15T14:34:12;7.20;;;4.63;;
65035;SDS011;51603;49.300;8.880;2022-11-15T14:36:38;4.90;;;4.13;;
65035;SDS011;51603;49.300;8.880;2022-11-15T14:39:03;6.53;;;4.60;;
65035;SDS011;51603;49.300;8.880;2022-11-15T14:41:34;4.40;;;3.60;;
65035;SDS011;51603;49.300;8.880;2022-11-15T14:44:02;6.60;;;4.97;;
65035;SDS011;51603;49.300;8.880;2022-11-15T14:46:29;6.10;;;4.60;;
65035;SDS011;51603;49.300;8.880;2022-11-15T14:48:55;8.37;;;4.13;;
65035;SDS011;51603;49.300;8.880;2022-11-15T14:51:21;5.47;;;3.87;;
65035;SDS011;51603;49.300;8.880;2022-11-15T14:53:46;5.80;;;4.60;;
65035;SDS011;51603;49.300;8.880;2022-11-15T14:56:12;6.53;;;5.13;;
65035;SDS011;51603;49.300;8.880;2022-11-15T14:58:38;9.63;;;4.17;;
65035;SDS011;51603;49.300;8.880;2022-11-15T15:01:16;4.60;;;4.07;;
65035;SDS011;51603;49.300;8.880;2022-11-15T15:03:44;5.33;;;4.30;;
65035;SDS011;51603;49.300;8.880;2022-11-15T15:06:10;7.53;;;5.70;;
65035;SDS011;51603;49.300;8.880;2022-11-15T15:08:37;6.17;;;5.57;;
65035;SDS011;51603;49.300;8.880;2022-11-15T15:11:06;6.97;;;5.13;;
65035;SDS011;51603;49.300;8.880;2022-11-15T15:13:37;6.80;;;4.97;;
65035;SDS011;51603;49.300;8.880;2022-11-15T15:16:03;5.80;;;4.87;;
65035;SDS011;51603;49.300;8.880;2022-11-15T15:18:29;6.17;;;4.80;;
65035;SDS011;51603;49.300;8.880;2022-11-15T15:20:55;7.70;;;5.40;;
65035;SDS011;51603;49.300;8.880;2022-11-15T15:23:24;7.30;;;5.00;;
65035;SDS011;51603;49.300;8.880;2022-11-15T15:25:54;8.07;;;6.00;;
65035;SDS011;51603;49.300;8.880;2022-11-15T15:28:19;6.53;;;4.70;;
65035;SDS011;51603;49.300;8.880;2022-11-15T15:30:45;7.37;;;4.33;;
65035;SDS011;51603;49.300;8.880;2022-11-15T15:33:10;6.40;;;5.53;;
65035;SDS011;51603;49.300;8.880;2022-11-15T15:35:36;11.63;;;8.20;;
65035;SDS011;51603;49.300;8.880;2022-11-15T15:38:02;6.00;;;5.40;;
65035;SDS011;51603;49.300;8.880;2022-11-15T15:40:29;6.80;;;5.70;;
65035;SDS011;51603;49.300;8.880;2022-11-15T15:42:57;7.10;;;6.40;;
65035;SDS011;51603;49.300;8.880;2022-11-15T15:45:22;14.17;;;6.03;;
65035;SDS011;51603;49.300;8.880;2022-11-15T15:47:50;9.60;;;8.10;;
65035;SDS011;51603;49.300;8.880;2022-11-15T15:52:45;7.30;;;5.47;;
65035;SDS011;51603;49.300;8.880;2022-11-15T15:55:11;6.43;;;5.80;;
65035;SDS011;51603;49.300;8.880;2022-11-15T15:57:36;6.83;;;6.13;;
65035;SDS011;51603;49.300;8.880;2022-11-15T16:00:02;6.70;;;5.50;;
65035;SDS011;51603;49.300;8.880;2022-11-15T16:02:29;8.60;;;5.33;;
65035;SDS011;51603;49.300;8.880;2022-11-15T16:04:55;9.30;;;7.50;;
65035;SDS011;51603;49.300;8.880;2022-11-15T16:07:21;9.93;;;6.60;;
65035;SDS011;51603;49.300;8.880;2022-11-15T16:09:50;10.13;;;7.57;;
65035;SDS011;51603;49.300;8.880;2022-11-15T16:12:25;9.13;;;8.23;;
65035;SDS011;51603;49.300;8.880;2022-11-15T16:14:51;8.70;;;7.90;;
65035;SDS011;51603;49.300;8.880;2022-11-15T16:17:18;6.60;;;5.90;;
65035;SDS011;51603;49.300;8.880;2022-11-15T16:19:46;8.30;;;5.63;;
65035;SDS011;51603;49.300;8.880;2022-11-15T16:22:12;10.57;;;6.70;;
65035;SDS011;51603;49.300;8.880;2022-11-15T16:24:37;7.10;;;5.80;;
65035;SDS011;51603;49.300;8.880;2022-11-15T16:27:03;6.60;;;5.87;;
65035;SDS011;51603;49.300;8.880;2022-11-15T16:29:29;6.93;;;5.77;;
65035;SDS011;51603;49.300;8.880;2022-11-15T16:31:54;10.77;;;6.53;;
65035;SDS011;51603;49.300;8.880;2022-11-15T16:34:20;6.57;;;5.87;;
65035;SDS011;51603;49.300;8.880;2022-11-15T16:36:46;10.07;;;6.33;;
65035;SDS011;51603;49.300;8.880;2022-11-15T16:39:12;8.57;;;6.40;;
65035;SDS011;51603;49.300;8.880;2022-11-15T16:41:38;8.77;;;6.57;;
65035;SDS011;51603;49.300;8.880;2022-11-15T16:44:05;6.80;;;5.73;;
65035;SDS011;51603;49.300;8.880;2022-11-15T16:46:30;13.07;;;5.93;;
65035;SDS011;51603;49.300;8.880;2022-11-15T16:48:56;10.07;;;6.30;;
65035;SDS011;51603;49.300;8.880;2022-11-15T16:51:22;10.30;;;6.70;;
65035;SDS011;51603;49.300;8.880;2022-11-15T16:53:48;8.70;;;7.30;;
65035;SDS011;51603;49.300;8.880;2022-11-15T16:56:18;7.40;;;6.20;;
65035;SDS011;51603;49.300;8.880;2022-11-15T16:58:52;7.50;;;6.07;;
65035;SDS011;51603;49.300;8.880;2022-11-15T17:01:22;9.40;;;6.50;;